Terminal Aerodrome Forecast
Issued by NWS Melbourne, FL

Home | Current Version | Previous Version | Text Only | Print | Product List | Glossary On
Versions: 1 2 3 4 5 6 7 8 9 10 11 12 13 14 15 16
000
FTUS42 KMLB 020533
TAFMLB
TAF
KMLB 020533Z 0206/0306 21004KT P6SM SCT250
     FM021400 15009KT P6SM SCT025 SCT250
     FM022100 16008KT P6SM VCSH SCT040 BKN100 PROB30 0221/0301 4SM
      TSRA BKN025CB
     FM030200 20004KT P6SM OVC250=

USA.gov is the U.S. government's official web portal to all federal, state and local government web resources and services.